Time;durP1;ratioP1;P1;durP2;ratioP2;P2;SDS_P1;SDS_P2;PMS_P1;PMS_P2;Temp;Humidity;BMP_temperature;BMP_pressure;BME280_temperature;BME280_humidity;BME280_pressure;Samples;Min_cycle;Max_cycle;Signal;HPM_P1;HPM_P2
2022/10/07 00:00:39;;;;;;;7.43;2.05;;;12.40;71.20;;;;;;5057000;28;20050;-81
2022/10/07 00:03:05;;;;;;;4.80;2.03;;;12.40;70.80;;;;;;5070915;28;20524;-81
2022/10/07 00:05:31;;;;;;;4.32;1.70;;;12.40;70.60;;;;;;5056482;28;20029;-80
2022/10/07 00:07:56;;;;;;;3.10;1.73;;;12.40;70.50;;;;;;5057427;28;20471;-81
2022/10/07 00:10:22;;;;;;;5.07;1.70;;;12.50;70.50;;;;;;5056905;28;20024;-81
2022/10/07 00:12:48;;;;;;;3.28;1.50;;;12.40;70.70;;;;;;5056556;28;20075;-81
2022/10/07 00:15:14;;;;;;;3.08;1.65;;;12.30;70.90;;;;;;5071859;28;20017;-81
2022/10/07 00:17:39;;;;;;;4.80;1.95;;;12.30;70.90;;;;;;5056513;28;20036;-81
2022/10/07 00:20:06;;;;;;;4.20;1.90;;;12.20;71.50;;;;;;5056577;28;20088;-81
2022/10/07 00:22:32;;;;;;;6.25;2.13;;;12.20;71.70;;;;;;5084976;28;20028;-81
2022/10/07 00:24:57;;;;;;;5.47;1.77;;;12.20;71.80;;;;;;5088207;28;20025;-80
2022/10/07 00:27:23;;;;;;;6.15;1.85;;;12.10;71.90;;;;;;5056650;28;20021;-81
2022/10/07 00:29:48;;;;;;;3.67;1.90;;;12.20;71.80;;;;;;5056591;28;20170;-80
2022/10/07 00:32:14;;;;;;;3.00;2.13;;;12.20;71.70;;;;;;5056169;28;20029;-80
2022/10/07 00:34:40;;;;;;;4.78;1.92;;;12.10;71.70;;;;;;5056438;28;20056;-81
2022/10/07 00:37:05;;;;;;;3.40;1.60;;;12.00;71.90;;;;;;5056045;28;20059;-81
2022/10/07 00:39:31;;;;;;;6.13;2.33;;;12.00;72.10;;;;;;5055672;28;20490;-81
2022/10/07 00:41:59;;;;;;;3.35;2.00;;;12.10;71.90;;;;;;5056461;28;20486;-81
2022/10/07 00:44:36;;;;;;;6.85;1.95;;;12.00;72.00;;;;;;5056051;28;20117;-80
2022/10/07 00:47:07;;;;;;;2.95;2.20;;;12.10;71.90;;;;;;5056203;28;20033;-81
2022/10/07 00:49:59;;;;;;;3.30;2.20;;;12.00;71.80;;;;;;5056438;28;20013;-81
2022/10/07 00:52:28;;;;;;;5.32;1.98;;;12.00;71.50;;;;;;5056043;28;20454;-81
2022/10/07 00:54:55;;;;;;;4.55;1.88;;;12.00;71.50;;;;;;5055100;28;20021;-81
2022/10/07 00:57:25;;;;;;;4.43;2.35;;;11.90;71.80;;;;;;5055949;28;20029;-81
2022/10/07 00:59:54;;;;;;;5.28;1.60;;;11.80;72.00;;;;;;5070231;28;20117;-81
2022/10/07 01:02:23;;;;;;;3.00;1.80;;;11.80;71.90;;;;;;5055723;28;20040;-81
2022/10/07 01:04:51;;;;;;;4.15;1.88;;;11.80;72.10;;;;;;5055891;28;20514;-80
2022/10/07 01:07:19;;;;;;;3.67;2.10;;;11.70;72.30;;;;;;5055755;28;20036;-81
2022/10/07 01:09:47;;;;;;;4.00;2.30;;;11.80;72.00;;;;;;5071171;28;20439;-81
2022/10/07 01:12:33;;;;;;;4.38;2.33;;;11.80;72.00;;;;;;5071075;28;20029;-81
2022/10/07 01:15:12;;;;;;;8.45;2.50;;;11.80;71.90;;;;;;5053760;28;20029;-81
2022/10/07 01:18:01;;;;;;;3.58;1.92;;;11.80;71.90;;;;;;5055631;28;20053;-81
2022/10/07 01:20:52;;;;;;;4.95;3.05;;;11.80;71.80;;;;;;5055747;28;20021;-81
2022/10/07 01:23:36;;;;;;;7.50;3.42;;;11.80;71.90;;;;;;5081518;28;20039;-81
2022/10/07 01:26:13;;;;;;;4.13;2.95;;;11.60;72.40;;;;;;5069947;28;20029;-81
2022/10/07 01:28:47;;;;;;;3.65;2.67;;;11.60;72.40;;;;;;5054314;28;20468;-81
2022/10/07 01:31:17;;;;;;;3.95;2.25;;;11.60;72.50;;;;;;5055171;28;20021;-81
2022/10/07 01:33:44;;;;;;;8.60;2.45;;;11.60;72.60;;;;;;5054677;28;20868;-80
2022/10/07 01:36:14;;;;;;;7.15;3.45;;;11.60;72.70;;;;;;5070729;28;20033;-80
2022/10/07 01:38:47;;;;;;;9.32;2.70;;;11.60;72.80;;;;;;5065809;28;20033;-81
2022/10/07 01:41:16;;;;;;;3.92;2.63;;;11.60;72.80;;;;;;5055715;28;20064;-81
2022/10/07 01:43:44;;;;;;;5.13;2.88;;;11.50;73.00;;;;;;5055337;28;20025;-81
2022/10/07 01:46:17;;;;;;;5.00;2.40;;;11.50;73.00;;;;;;5054778;28;20065;-81
2022/10/07 01:48:45;;;;;;;2.65;2.28;;;11.50;72.80;;;;;;5055298;28;20021;-81
2022/10/07 01:51:12;;;;;;;8.30;2.85;;;11.50;72.80;;;;;;5054399;28;20079;-81
2022/10/07 01:53:55;;;;;;;7.85;2.90;;;11.50;72.50;;;;;;5055219;28;20025;-81
2022/10/07 01:56:46;;;;;;;4.15;2.70;;;11.50;72.40;;;;;;5055053;28;20113;-81
2022/10/07 01:59:23;;;;;;;;;;;11.50;72.20;;;;;;5054343;28;20120;-81
2022/10/07 02:02:05;;;;;;;2.75;2.22;;;11.40;72.20;;;;;;5056274;28;19905;-81
2022/10/07 02:04:37;;;;;;;4.18;2.20;;;11.50;72.10;;;;;;5062062;28;20037;-81
2022/10/07 02:07:06;;;;;;;6.63;2.90;;;11.40;72.10;;;;;;5059154;28;20025;-81
2022/10/07 02:10:03;;;;;;;8.38;2.90;;;11.40;72.10;;;;;;5058499;28;20057;-81
2022/10/07 02:12:36;;;;;;;5.70;3.20;;;11.30;72.10;;;;;;5044555;28;20033;-81
2022/10/07 02:15:09;;;;;;;6.03;3.40;;;11.30;72.20;;;;;;5058895;28;20028;-81
2022/10/07 02:17:38;;;;;;;8.13;3.10;;;11.30;72.30;;;;;;5059024;28;20021;-81
2022/10/07 02:20:09;;;;;;;6.93;3.20;;;11.30;72.10;;;;;;5059019;28;20056;-81
2022/10/07 02:22:36;;;;;;;5.43;2.58;;;11.20;72.20;;;;;;5072935;28;20048;-81
2022/10/07 02:25:02;;;;;;;4.45;2.20;;;11.20;72.20;;;;;;5099124;28;20027;-81
2022/10/07 02:27:35;;;;;;;4.10;2.20;;;11.20;72.00;;;;;;5060686;28;20032;-81
2022/10/07 02:30:09;;;;;;;9.23;2.65;;;11.20;72.10;;;;;;5058354;28;20032;-81
2022/10/07 02:32:38;;;;;;;8.63;2.70;;;11.20;72.30;;;;;;5073968;28;20029;-81
2022/10/07 02:35:09;;;;;;;2.42;1.77;;;11.10;72.60;;;;;;5073713;28;20029;-81
2022/10/07 02:37:37;;;;;;;2.72;2.17;;;11.10;72.70;;;;;;5058596;28;20033;-81
2022/10/07 02:40:03;;;;;;;3.50;2.33;;;11.10;72.80;;;;;;5058638;28;20021;-82
2022/10/07 02:42:54;;;;;;;4.95;2.40;;;11.10;72.50;;;;;;5057335;28;20484;-81
2022/10/07 02:45:42;;;;;;;7.40;2.65;;;11.10;72.50;;;;;;5058068;28;20081;-81
2022/10/07 02:48:10;;;;;;;4.70;3.15;;;11.10;72.30;;;;;;5057016;28;20029;-81
2022/10/07 02:50:41;;;;;;;8.32;2.70;;;11.10;72.30;;;;;;5056612;28;20017;-81
2022/10/07 02:53:08;;;;;;;2.70;1.95;;;11.10;72.20;;;;;;5058573;28;20032;-81
2022/10/07 02:55:34;;;;;;;6.63;2.55;;;11.10;72.10;;;;;;5073562;28;20028;-81
2022/10/07 02:58:05;;;;;;;3.47;2.10;;;11.10;72.00;;;;;;5058335;28;20056;-81
2022/10/07 03:00:36;;;;;;;9.73;2.78;;;11.10;71.90;;;;;;5058419;28;20040;-80
2022/10/07 03:03:03;;;;;;;4.22;2.30;;;11.00;72.20;;;;;;5073442;28;20025;-81
2022/10/07 03:05:31;;;;;;;10.07;2.70;;;11.00;72.10;;;;;;5057938;28;20022;-81
2022/10/07 03:08:03;;;;;;;7.78;3.08;;;11.00;72.20;;;;;;5077511;28;20104;-81
2022/10/07 03:10:29;;;;;;;7.25;2.50;;;11.00;72.20;;;;;;5077191;28;20074;-81
2022/10/07 03:12:55;;;;;;;7.40;3.05;;;11.00;72.50;;;;;;5071875;28;20029;-81
2022/10/07 03:15:27;;;;;;;3.88;2.63;;;10.90;72.50;;;;;;5057541;28;20032;-80
2022/10/07 03:17:52;;;;;;;4.00;2.42;;;10.90;72.40;;;;;;5057840;28;20116;-81
2022/10/07 03:20:18;;;;;;;3.03;2.20;;;10.90;72.40;;;;;;5058295;28;20048;-81
2022/10/07 03:22:44;;;;;;;4.47;2.45;;;10.90;72.60;;;;;;5074455;28;20031;-81
2022/10/07 03:25:10;;;;;;;2.83;1.95;;;11.00;72.40;;;;;;5076753;28;20078;-81
2022/10/07 03:27:37;;;;;;;5.65;2.55;;;10.90;72.30;;;;;;5057491;28;20029;-81
2022/10/07 03:30:04;;;;;;;10.93;2.63;;;10.90;72.20;;;;;;5062847;28;20016;-81
2022/10/07 03:32:30;;;;;;;4.07;2.30;;;10.90;72.40;;;;;;5062851;28;20048;-81
2022/10/07 03:34:56;;;;;;;4.63;2.15;;;10.80;72.50;;;;;;5073077;28;20082;-81
2022/10/07 03:37:22;;;;;;;7.22;2.78;;;10.80;72.40;;;;;;5057292;28;20033;-81
2022/10/07 03:39:48;;;;;;;7.10;2.33;;;10.80;72.30;;;;;;5057553;28;20028;-81
2022/10/07 03:42:14;;;;;;;4.55;1.95;;;10.80;72.30;;;;;;5057526;28;20547;-81
2022/10/07 03:44:39;;;;;;;7.20;2.38;;;10.80;72.40;;;;;;5056453;28;20048;-81
2022/10/07 03:47:07;;;;;;;3.40;1.90;;;10.80;72.50;;;;;;5056911;28;20488;-81
2022/10/07 03:49:35;;;;;;;13.43;2.70;;;10.80;72.50;;;;;;5057299;28;20028;-80
2022/10/07 03:52:01;;;;;;;6.93;2.70;;;10.70;72.60;;;;;;5057426;28;20025;-81
2022/10/07 03:54:27;;;;;;;4.35;2.17;;;10.70;72.70;;;;;;5056983;28;20540;-81
2022/10/07 03:56:53;;;;;;;5.43;2.58;;;10.70;72.70;;;;;;5057321;28;20036;-80
2022/10/07 03:59:19;;;;;;;4.90;2.45;;;10.70;72.80;;;;;;5057062;28;20066;-81
2022/10/07 04:01:45;;;;;;;2.67;2.15;;;10.70;73.00;;;;;;5057103;28;20037;-81
2022/10/07 04:04:10;;;;;;;5.15;2.92;;;10.70;72.90;;;;;;5056551;28;20073;-80
2022/10/07 04:06:37;;;;;;;5.38;2.60;;;10.70;72.70;;;;;;5071742;28;20037;-80
2022/10/07 04:09:04;;;;;;;3.13;2.42;;;10.70;72.80;;;;;;5056823;28;20090;-81
2022/10/07 04:11:29;;;;;;;3.05;2.38;;;10.70;72.80;;;;;;5056897;28;20032;-81
2022/10/07 04:13:58;;;;;;;4.18;2.20;;;10.60;72.70;;;;;;5056694;28;20017;-80
2022/10/07 04:16:23;;;;;;;5.35;2.67;;;10.60;72.90;;;;;;5056863;28;20036;-80
2022/10/07 04:18:52;;;;;;;5.30;2.70;;;10.60;72.80;;;;;;5071667;28;20032;-81
2022/10/07 04:21:18;;;;;;;5.18;2.58;;;10.60;72.70;;;;;;5075896;28;20398;-78
2022/10/07 04:23:43;;;;;;;6.22;2.85;;;10.50;72.90;;;;;;5089865;28;20043;-79
2022/10/07 04:26:11;;;;;;;4.35;2.40;;;10.50;73.00;;;;;;5095105;28;20032;-80
2022/10/07 04:28:37;;;;;;;4.85;3.00;;;10.50;73.10;;;;;;5096867;28;20039;-81
2022/10/07 04:31:07;;;;;;;4.65;2.47;;;10.40;73.40;;;;;;5069583;28;20032;-82
2022/10/07 04:33:33;;;;;;;;;;;10.40;73.50;;;;;;5072140;28;20065;-81
2022/10/07 04:36:04;;;;;;;8.20;2.33;;;10.50;73.30;;;;;;5056370;28;20355;-82
2022/10/07 04:38:31;;;;;;;4.80;3.50;;;10.50;73.10;;;;;;5056173;28;20525;-81
2022/10/07 04:41:00;;;;;;;4.40;2.60;;;10.50;73.00;;;;;;5056219;28;20124;-81
2022/10/07 04:43:27;;;;;;;4.25;2.55;;;10.40;73.00;;;;;;5054224;28;20029;-81
2022/10/07 04:46:05;;;;;;;7.47;2.70;;;10.40;73.10;;;;;;5054766;28;20045;-82
2022/10/07 04:48:31;;;;;;;5.15;2.65;;;10.40;73.00;;;;;;5054786;28;20032;-81
2022/10/07 04:51:05;;;;;;;8.70;3.10;;;10.40;73.30;;;;;;5068053;28;20025;-74
2022/10/07 04:53:31;;;;;;;10.90;3.17;;;10.50;73.10;;;;;;5073597;28;20103;-74
2022/10/07 04:55:57;;;;;;;6.95;2.97;;;10.40;73.40;;;;;;5069736;28;20613;-74
2022/10/07 04:58:23;;;;;;;5.13;2.95;;;10.40;73.20;;;;;;5055877;28;20482;-74
2022/10/07 05:00:51;;;;;;;8.00;2.88;;;10.40;73.20;;;;;;5070920;28;20041;-76
2022/10/07 05:03:19;;;;;;;5.43;3.42;;;10.30;73.40;;;;;;5061746;28;20044;-75
2022/10/07 05:05:47;;;;;;;8.30;2.55;;;10.30;73.40;;;;;;5064963;28;20033;-76
2022/10/07 05:08:14;;;;;;;5.40;3.33;;;10.30;73.30;;;;;;5074647;28;20028;-78
2022/10/07 05:10:41;;;;;;;5.55;2.90;;;10.30;73.80;;;;;;5074139;28;20521;-79
2022/10/07 05:13:11;;;;;;;6.30;2.35;;;10.30;73.80;;;;;;5083599;28;20091;-78
2022/10/07 05:15:37;;;;;;;4.20;3.25;;;10.30;73.60;;;;;;5054836;28;20518;-77
2022/10/07 05:18:05;;;;;;;7.00;2.92;;;10.30;73.90;;;;;;5055696;28;20028;-79
2022/10/07 05:20:30;;;;;;;7.00;2.80;;;10.20;74.20;;;;;;5069143;28;20035;-91
2022/10/07 05:22:56;;;;;;;9.60;3.45;;;10.20;74.20;;;;;;5077836;28;20409;-82
2022/10/07 05:25:22;;;;;;;5.55;3.53;;;10.20;74.10;;;;;;5076552;28;20028;-82
2022/10/07 05:27:52;;;;;;;4.60;3.17;;;10.20;74.20;;;;;;5074641;28;20473;-81
2022/10/07 05:30:18;;;;;;;;;;;10.20;74.10;;;;;;5070604;28;20017;-82
2022/10/07 05:32:44;;;;;;;5.53;3.33;;;10.20;74.10;;;;;;5071256;28;19970;-83
2022/10/07 05:35:10;;;;;;;21.35;3.70;;;10.20;74.00;;;;;;5055638;28;20060;-82
2022/10/07 05:37:35;;;;;;;4.57;2.95;;;10.20;74.00;;;;;;5068795;28;20032;-87
2022/10/07 05:40:01;;;;;;;8.65;3.08;;;10.20;74.20;;;;;;5063551;28;20066;-88
2022/10/07 05:42:27;;;;;;;5.18;2.20;;;10.20;74.40;;;;;;5055485;28;20029;-78
2022/10/07 05:44:52;;;;;;;3.42;2.75;;;10.20;74.00;;;;;;5060703;28;20566;-78
2022/10/07 05:47:19;;;;;;;7.95;3.70;;;10.10;74.10;;;;;;5059218;28;20045;-78
2022/10/07 05:49:45;;;;;;;5.38;3.22;;;10.10;73.90;;;;;;5063661;28;20036;-84
2022/10/07 05:52:10;;;;;;;10.63;3.90;;;10.10;74.20;;;;;;5055505;28;20044;-78
2022/10/07 05:54:36;;;;;;;10.52;3.33;;;10.10;74.20;;;;;;5073079;28;20031;-78
2022/10/07 05:57:02;;;;;;;6.50;3.45;;;10.10;74.20;;;;;;5073296;28;20039;-78
2022/10/07 05:59:27;;;;;;;5.82;3.50;;;10.10;74.60;;;;;;5074144;28;20032;-79
2022/10/07 06:01:58;;;;;;;5.97;3.40;;;10.00;74.50;;;;;;5068539;28;20527;-79
2022/10/07 06:04:25;;;;;;;4.30;2.78;;;10.00;74.40;;;;;;5055202;28;20032;-79
2022/10/07 06:06:51;;;;;;;7.25;4.25;;;9.90;74.60;;;;;;5054489;28;20025;-79
2022/10/07 06:14:53;;;;;;;6.55;4.80;;;9.90;75.00;;;;;;5075058;28;20051;-79
2022/10/07 06:17:19;;;;;;;10.73;4.43;;;9.90;75.00;;;;;;5065185;28;20029;-79
2022/10/07 06:19:44;;;;;;;7.50;4.30;;;9.90;75.10;;;;;;5053953;28;20037;-79
2022/10/07 06:22:10;;;;;;;7.60;4.03;;;9.90;75.10;;;;;;5061149;28;20016;-79
2022/10/07 06:24:36;;;;;;;10.05;5.13;;;9.90;75.00;;;;;;5094315;28;20606;-79
2022/10/07 06:27:01;;;;;;;6.60;4.50;;;10.00;74.80;;;;;;5073593;28;20021;-79
2022/10/07 06:29:27;;;;;;;8.65;4.78;;;10.00;74.90;;;;;;5070579;28;20376;-79
2022/10/07 06:31:53;;;;;;;7.15;4.68;;;10.00;75.10;;;;;;5055265;28;20096;-79
2022/10/07 06:34:18;;;;;;;6.57;3.90;;;9.90;75.00;;;;;;5054770;28;20032;-79
2022/10/07 06:36:44;;;;;;;8.32;4.35;;;10.00;75.30;;;;;;5054992;28;20124;-80
2022/10/07 06:39:09;;;;;;;5.40;4.18;;;10.00;74.90;;;;;;5070418;28;20029;-80
2022/10/07 06:41:35;;;;;;;9.07;3.67;;;10.00;74.70;;;;;;5054946;28;20025;-80
2022/10/07 06:44:01;;;;;;;7.15;4.20;;;10.00;74.60;;;;;;5054577;28;20547;-80
2022/10/07 06:46:26;;;;;;;5.53;3.67;;;10.00;74.70;;;;;;5054774;28;20527;-80
2022/10/07 06:48:52;;;;;;;5.85;3.78;;;10.00;74.50;;;;;;5055910;28;20025;-80
2022/10/07 06:51:19;;;;;;;6.65;3.63;;;10.00;74.90;;;;;;5058551;28;20025;-79
2022/10/07 06:53:49;;;;;;;4.78;3.10;;;10.00;74.50;;;;;;5058769;28;20484;-80
2022/10/07 06:56:15;;;;;;;6.43;4.07;;;10.00;74.70;;;;;;5058861;28;20041;-80
2022/10/07 06:58:42;;;;;;;8.07;4.07;;;9.90;74.80;;;;;;5058095;28;20025;-79
2022/10/07 07:01:08;;;;;;;7.72;3.35;;;10.00;74.70;;;;;;5056897;28;20119;-79
2022/10/07 07:03:34;;;;;;;6.07;3.70;;;10.00;74.50;;;;;;5058247;28;20053;-80
2022/10/07 07:06:00;;;;;;;6.93;4.10;;;10.00;74.50;;;;;;5058224;28;20475;-80
2022/10/07 07:08:28;;;;;;;8.70;3.97;;;10.10;74.50;;;;;;5058218;28;20025;-79
2022/10/07 07:10:54;;;;;;;5.68;3.33;;;10.10;74.60;;;;;;5063397;28;20073;-79
2022/10/07 07:13:20;;;;;;;10.63;3.85;;;10.20;74.40;;;;;;5058095;28;20033;-80
2022/10/07 07:15:58;;;;;;;7.85;3.80;;;10.20;74.50;;;;;;5058414;28;20029;-79
2022/10/07 07:18:25;;;;;;;6.90;3.75;;;10.20;74.70;;;;;;5058123;28;20013;-79
2022/10/07 07:20:50;;;;;;;6.95;4.55;;;10.20;76.00;;;;;;5057893;28;20070;-79
2022/10/07 07:23:17;;;;;;;9.50;4.28;;;10.20;76.30;;;;;;5084092;28;20024;-79
2022/10/07 07:25:44;;;;;;;11.10;3.65;;;10.20;76.40;;;;;;5098137;28;20086;-79
2022/10/07 07:28:12;;;;;;;5.70;3.40;;;10.30;76.40;;;;;;5058644;28;20039;-79
2022/10/07 07:30:39;;;;;;;8.13;3.45;;;10.40;76.20;;;;;;5057616;28;20027;-79
2022/10/07 07:33:05;;;;;;;7.53;3.75;;;10.50;75.90;;;;;;5057682;28;20410;-79
2022/10/07 07:35:35;;;;;;;6.85;4.15;;;10.60;76.10;;;;;;5057390;28;20499;-79
2022/10/07 07:38:00;;;;;;;9.73;4.03;;;10.60;76.10;;;;;;5056664;28;20025;-79
2022/10/07 07:40:26;;;;;;;6.78;3.58;;;10.70;76.30;;;;;;5057460;28;20035;-80
2022/10/07 07:42:55;;;;;;;8.95;4.47;;;10.80;76.40;;;;;;5057528;28;20060;-79
2022/10/07 07:45:22;;;;;;;8.18;3.28;;;10.80;76.50;;;;;;5072826;28;20576;-79
2022/10/07 07:47:48;;;;;;;7.40;3.70;;;10.80;77.00;;;;;;5070972;28;20074;-79
2022/10/07 07:50:17;;;;;;;8.05;3.38;;;10.90;76.80;;;;;;5067421;28;20495;-80
2022/10/07 07:52:43;;;;;;;9.15;4.20;;;10.90;77.00;;;;;;5072911;28;20522;-79
2022/10/07 07:55:09;;;;;;;13.13;4.30;;;10.90;77.70;;;;;;5057597;28;20056;-79
2022/10/07 07:57:35;;;;;;;8.32;4.15;;;11.00;77.10;;;;;;5057370;28;20081;-79
2022/10/07 08:00:04;;;;;;;4.72;3.33;;;11.10;77.70;;;;;;5056931;28;20500;-79
2022/10/07 08:02:30;;;;;;;7.82;4.35;;;11.00;77.90;;;;;;5057084;28;20028;-79
2022/10/07 08:04:55;;;;;;;4.65;3.45;;;11.20;77.90;;;;;;5057171;28;20162;-79
2022/10/07 08:07:21;;;;;;;9.93;4.07;;;11.20;77.80;;;;;;5057364;28;20560;-79
2022/10/07 08:09:46;;;;;;;8.82;3.58;;;11.30;77.40;;;;;;5056907;28;20487;-79
2022/10/07 08:12:13;;;;;;;15.10;3.90;;;11.50;77.60;;;;;;5074881;28;20036;-79
2022/10/07 08:14:39;;;;;;;9.80;3.70;;;11.70;77.00;;;;;;5077043;28;20025;-79
2022/10/07 08:17:05;;;;;;;12.35;3.42;;;11.80;77.10;;;;;;5075454;28;20190;-79
2022/10/07 08:19:31;;;;;;;11.05;3.65;;;11.80;77.20;;;;;;5056935;28;20056;-79
2022/10/07 08:21:57;;;;;;;7.07;3.70;;;11.80;77.00;;;;;;5060662;28;20490;-79
2022/10/07 08:24:24;;;;;;;9.00;3.90;;;11.90;77.20;;;;;;5095961;28;20055;-79
2022/10/07 08:26:52;;;;;;;7.88;3.95;;;11.90;77.20;;;;;;5060963;28;20064;-79
2022/10/07 08:29:18;;;;;;;4.15;3.53;;;12.00;77.20;;;;;;5056837;28;20059;-79
2022/10/07 08:31:43;;;;;;;6.57;3.13;;;12.20;76.80;;;;;;5056446;28;20017;-79
2022/10/07 08:34:10;;;;;;;6.38;3.78;;;12.20;77.20;;;;;;5056566;28;20495;-79
2022/10/07 08:36:36;;;;;;;6.85;3.60;;;12.20;77.20;;;;;;5055149;28;20033;-79
2022/10/07 08:39:03;;;;;;;6.95;3.55;;;12.30;77.10;;;;;;5056639;28;20025;-79
2022/10/07 08:42:12;;;;;;;6.45;3.65;;;12.30;77.20;;;;;;5055393;28;20029;-80
2022/10/07 08:44:40;;;;;;;7.05;3.20;;;12.30;77.40;;;;;;5056345;28;20052;-79
2022/10/07 08:47:25;;;;;;;8.82;3.45;;;12.40;77.40;;;;;;5056052;28;20045;-79
2022/10/07 08:50:15;;;;;;;8.85;4.00;;;12.50;77.00;;;;;;5056290;28;20021;-79
2022/10/07 08:53:01;;;;;;;5.97;3.10;;;12.60;77.20;;;;;;5056284;28;20028;-79
2022/10/07 08:55:38;;;;;;;7.88;3.67;;;12.70;76.90;;;;;;5071607;28;20074;-79
2022/10/07 08:58:29;;;;;;;6.68;3.25;;;12.80;77.00;;;;;;5056297;28;20032;-79
2022/10/07 09:01:20;;;;;;;9.82;4.13;;;12.80;76.60;;;;;;5056037;28;20067;-79
2022/10/07 09:03:53;;;;;;;7.63;3.97;;;12.80;76.90;;;;;;5056075;28;20021;-80
2022/10/07 09:06:27;;;;;;;9.85;4.10;;;12.90;76.80;;;;;;5055713;28;20562;-79
2022/10/07 09:09:01;;;;;;;8.77;3.95;;;13.00;76.50;;;;;;5071584;28;20029;-79
2022/10/07 09:11:29;;;;;;;9.93;4.43;;;13.10;76.50;;;;;;5066787;28;20016;-79
2022/10/07 09:14:20;;;;;;;7.20;3.85;;;13.10;76.40;;;;;;5071859;28;20453;-80
2022/10/07 09:16:47;;;;;;;8.02;4.35;;;13.20;76.00;;;;;;5066608;28;20155;-78
2022/10/07 09:19:30;;;;;;;5.65;3.70;;;13.20;76.20;;;;;;5055926;28;20051;-80
2022/10/07 09:22:18;;;;;;;8.40;3.05;;;13.30;76.40;;;;;;5059195;28;20037;-79
2022/10/07 09:24:45;;;;;;;8.57;3.53;;;13.30;76.90;;;;;;5096147;28;20028;-79
2022/10/07 09:27:14;;;;;;;10.10;4.18;;;13.50;76.50;;;;;;5094680;28;20054;-80
2022/10/07 09:29:40;;;;;;;5.78;3.20;;;13.50;76.60;;;;;;5080833;28;20044;-79
2022/10/07 09:32:13;;;;;;;10.50;3.42;;;13.60;76.20;;;;;;5055561;28;20021;-79
2022/10/07 09:34:40;;;;;;;9.90;3.72;;;13.70;76.00;;;;;;5054526;28;20036;-78
2022/10/07 09:37:08;;;;;;;3.63;2.67;;;13.80;75.90;;;;;;5055505;28;20031;-79
2022/10/07 09:39:34;;;;;;;7.47;3.53;;;13.80;75.70;;;;;;5055603;28;20033;-79
2022/10/07 09:42:02;;;;;;;4.45;2.75;;;13.80;75.00;;;;;;5055317;28;20108;-78
2022/10/07 09:44:28;;;;;;;7.97;3.22;;;13.90;75.60;;;;;;5070980;28;20036;-80
2022/10/07 09:46:58;;;;;;;5.00;3.00;;;14.00;75.10;;;;;;5055180;28;20091;-78
2022/10/07 09:49:26;;;;;;;6.55;3.28;;;14.10;75.20;;;;;;5071120;28;20025;-78
2022/10/07 09:52:06;;;;;;;11.27;3.03;;;14.20;75.70;;;;;;5060285;28;20026;-79
2022/10/07 09:54:34;;;;;;;6.50;2.80;;;14.20;74.80;;;;;;5054379;28;20506;-79
2022/10/07 09:57:03;;;;;;;5.60;3.13;;;14.40;75.10;;;;;;5054197;28;20029;-79
2022/10/07 09:59:35;;;;;;;7.95;3.10;;;14.50;74.40;;;;;;5071050;28;20514;-79
2022/10/07 10:02:13;;;;;;;5.72;2.63;;;14.80;73.70;;;;;;5055045;28;20442;-79
2022/10/07 10:04:55;;;;;;;6.43;2.38;;;14.90;72.50;;;;;;5055122;28;20025;-79
2022/10/07 10:07:27;;;;;;;5.95;2.65;;;15.00;73.00;;;;;;5054108;28;20021;-79
2022/10/07 10:09:55;;;;;;;8.15;2.92;;;15.00;72.20;;;;;;5054477;28;20052;-79
2022/10/07 10:12:23;;;;;;;5.97;3.00;;;15.10;72.70;;;;;;5074112;28;20027;-78
2022/10/07 10:14:50;;;;;;;7.43;2.75;;;15.10;72.50;;;;;;5075222;28;20442;-78
2022/10/07 10:17:38;;;;;;;4.55;2.70;;;15.10;72.10;;;;;;5069774;28;20037;-78
2022/10/07 10:20:38;;;;;;;6.80;2.95;;;15.20;72.00;;;;;;5055259;28;20029;-80
2022/10/07 10:23:25;;;;;;;11.07;2.95;;;15.20;71.80;;;;;;5076969;28;20023;-78
2022/10/07 10:26:26;;;;;;;6.95;2.60;;;15.20;70.60;;;;;;5059051;28;20029;-79
2022/10/07 10:29:10;;;;;;;6.03;2.13;;;15.30;70.10;;;;;;5059109;28;20032;-78
2022/10/07 10:31:54;;;;;;;6.43;1.90;;;15.40;71.10;;;;;;5058635;28;20484;-78
2022/10/07 10:34:34;;;;;;;8.65;2.38;;;15.40;70.00;;;;;;5058769;28;20074;-79
2022/10/07 10:37:03;;;;;;;6.82;2.25;;;15.50;69.70;;;;;;5058845;28;20029;-78
2022/10/07 10:39:58;;;;;;;11.15;2.45;;;15.50;69.40;;;;;;5059044;28;20059;-78
2022/10/07 10:42:59;;;;;;;7.70;2.22;;;15.60;68.90;;;;;;5058821;28;20029;-78
2022/10/07 10:45:51;;;;;;;5.43;2.10;;;15.70;67.60;;;;;;5058332;28;20482;-78
2022/10/07 10:48:46;;;;;;;6.00;2.00;;;15.80;67.80;;;;;;5064306;28;20021;-79
2022/10/07 10:51:33;;;;;;;4.45;2.50;;;15.80;68.60;;;;;;5057373;28;20395;-78
2022/10/07 10:54:27;;;;;;;5.05;1.58;;;15.80;67.80;;;;;;5058365;28;20087;-78
2022/10/07 10:57:17;;;;;;;5.40;1.90;;;15.90;67.40;;;;;;5058435;28;20025;-79
2022/10/07 10:59:42;;;;;;;;;;;16.00;67.70;;;;;;5058934;28;20063;-78
2022/10/07 11:02:21;;;;;;;8.18;2.72;;;16.00;67.20;;;;;;5073507;28;20291;-78
2022/10/07 11:05:02;;;;;;;8.38;2.30;;;16.10;67.50;;;;;;5058369;28;20025;-78
2022/10/07 11:07:49;;;;;;;9.85;2.03;;;16.10;67.20;;;;;;5057262;28;20029;-78
2022/10/07 11:10:53;;;;;;;8.65;1.45;;;16.20;67.00;;;;;;5059873;28;20029;-78
2022/10/07 11:13:26;;;;;;;6.60;1.33;;;16.30;66.90;;;;;;5035912;28;20029;-78
2022/10/07 11:16:07;;;;;;;5.32;1.67;;;16.30;66.60;;;;;;5072598;28;20511;-78
2022/10/07 11:18:51;;;;;;;5.82;1.83;;;16.30;65.70;;;;;;5076860;28;20028;-78
2022/10/07 11:21:33;;;;;;;5.20;1.30;;;16.40;65.70;;;;;;5078081;28;20036;-78
2022/10/07 11:24:09;;;;;;;4.40;1.55;;;16.50;66.00;;;;;;5073108;28;20387;-78
2022/10/07 11:26:37;;;;;;;6.70;1.50;;;16.50;65.50;;;;;;5058010;28;20065;-78
2022/10/07 11:29:25;;;;;;;3.03;0.88;;;16.60;65.60;;;;;;5057903;28;20088;-78
2022/10/07 11:32:12;;;;;;;7.32;1.00;;;16.60;65.60;;;;;;5057880;28;20039;-77
2022/10/07 11:34:46;;;;;;;7.18;1.20;;;16.70;64.50;;;;;;5072495;28;20086;-78
2022/10/07 11:37:46;;;;;;;4.75;1.33;;;16.70;64.50;;;;;;5057789;28;20029;-78
2022/10/07 11:40:12;;;;;;;4.82;1.30;;;16.80;64.30;;;;;;5057945;28;20502;-78
2022/10/07 11:42:42;;;;;;;7.65;1.30;;;16.80;63.90;;;;;;5057652;28;20040;-78
2022/10/07 11:45:20;;;;;;;7.70;1.90;;;16.80;64.00;;;;;;5057246;28;20511;-78
2022/10/07 11:47:52;;;;;;;7.75;1.63;;;16.80;63.40;;;;;;5057536;28;20036;-78
2022/10/07 11:50:40;;;;;;;9.15;1.83;;;16.90;63.60;;;;;;5057624;28;20392;-78
2022/10/07 11:53:24;;;;;;;5.75;1.27;;;16.90;62.50;;;;;;5073152;28;20028;-78
2022/10/07 11:56:00;;;;;;;6.68;1.23;;;17.00;62.40;;;;;;5057531;28;20044;-78
2022/10/07 11:58:31;;;;;;;3.50;1.02;;;17.10;62.70;;;;;;5057408;28;20025;-78
2022/10/07 12:01:34;;;;;;;5.25;1.40;;;17.10;62.70;;;;;;5064114;28;20105;-77
2022/10/07 12:04:15;;;;;;;6.60;1.35;;;17.20;62.30;;;;;;5034810;28;20025;-78
2022/10/07 12:07:18;;;;;;;3.95;1.45;;;17.30;62.30;;;;;;5073721;28;20036;-78
2022/10/07 12:10:20;;;;;;;5.82;1.75;;;17.30;62.20;;;;;;5076183;28;20024;-78
2022/10/07 12:12:52;;;;;;;7.97;1.70;;;17.30;61.30;;;;;;5050109;28;20051;-78
2022/10/07 12:15:43;;;;;;;5.10;1.10;;;17.30;62.50;;;;;;5055988;28;20071;-78
2022/10/07 12:18:09;;;;;;;7.07;1.23;;;17.30;61.80;;;;;;5057088;28;20029;-78
2022/10/07 12:20:45;;;;;;;3.08;1.50;;;17.30;61.80;;;;;;5056936;28;20029;-78
2022/10/07 12:23:19;;;;;;;8.95;1.35;;;17.40;61.90;;;;;;5081060;28;20024;-78
2022/10/07 12:25:47;;;;;;;3.92;1.23;;;17.40;62.70;;;;;;5097201;28;20031;-78
2022/10/07 12:28:26;;;;;;;8.02;1.55;;;17.50;62.40;;;;;;5062546;28;20033;-78
2022/10/07 12:30:56;;;;;;;6.63;1.52;;;17.60;61.60;;;;;;5072449;28;20025;-78
2022/10/07 12:33:44;;;;;;;4.22;1.20;;;17.60;61.80;;;;;;5056822;28;20446;-78
2022/10/07 12:36:26;;;;;;;5.78;1.17;;;17.70;60.10;;;;;;5056728;28;20032;-78
2022/10/07 12:39:01;;;;;;;6.55;1.20;;;17.70;60.50;;;;;;5071961;28;20495;-78
2022/10/07 12:41:31;;;;;;;4.35;1.35;;;17.70;61.40;;;;;;5056689;28;20021;-78
2022/10/07 12:44:05;;;;;;;6.00;0.95;;;17.80;60.70;;;;;;5056406;28;20029;-79
2022/10/07 12:46:37;;;;;;;6.32;1.17;;;17.80;60.70;;;;;;5054012;28;20049;-79
2022/10/07 12:49:05;;;;;;;5.53;1.30;;;17.90;60.70;;;;;;5071954;28;20425;-78
2022/10/07 12:51:37;;;;;;;9.50;1.38;;;17.90;61.20;;;;;;5056288;28;20040;-78
2022/10/07 12:54:27;;;;;;;6.43;1.38;;;18.00;60.70;;;;;;5056453;28;20018;-78
2022/10/07 12:56:53;;;;;;;5.35;1.00;;;18.00;60.00;;;;;;5046706;28;20041;-78
2022/10/07 12:59:48;;;;;;;6.90;1.17;;;18.00;59.50;;;;;;5056254;28;20040;-78
2022/10/07 13:02:35;;;;;;;4.78;1.48;;;18.00;59.40;;;;;;5056232;28;20025;-78
2022/10/07 13:05:19;;;;;;;7.03;1.00;;;18.00;60.00;;;;;;5055989;28;20033;-78
2022/10/07 13:08:00;;;;;;;8.15;0.80;;;18.00;60.10;;;;;;5071703;28;20025;-78
2022/10/07 13:10:37;;;;;;;5.28;0.95;;;18.00;60.40;;;;;;5059003;28;20054;-78
2022/10/07 13:13:16;;;;;;;5.38;1.33;;;18.10;60.60;;;;;;5076053;28;20021;-78
2022/10/07 13:15:52;;;;;;;7.25;1.60;;;18.10;59.00;;;;;;5076021;28;20024;-78
2022/10/07 13:18:29;;;;;;;3.10;0.82;;;18.20;59.10;;;;;;5066869;28;20017;-78